Sparkman, Arkansas
Current Conditions -  °F | °C
As of 4:56 AM on Sunday 23 Nov 2014 (Local Time) from KADF Reporting Station
Haze Haze  
Wind Chill: 58°   Ceiling: 500
Heat Index: 58°   Visibility: 6mi
Dew Point: 58°   Wind: 9mph
Humidity: 100%   Direction: 150°SSE
Pressure: 29.65"   Gusts: NA
Location:  33.92°N, 92.85°W
Report Text: KADF 231056Z AUTO 15008KT 6SM BR OVC005 14/14 A2965 RMK AO2 T01440144 SLP055
Loading
Personal Weather Stations






























Interactive Weather Map New forecast layout! Learn more

10-Day Weather Forecast

Advertisements
Track Severe Weather on mobile